createdAt,value
2019-02-25T00:01:36.932Z,1032.52
2019-02-25T00:02:44.515Z,1032.49
2019-02-25T00:03:44.471Z,1032.49
2019-02-25T00:04:46.478Z,1032.45
2019-02-25T00:05:44.484Z,1032.47
2019-02-25T00:07:50.625Z,1032.46
2019-02-25T00:08:50.649Z,1032.44
2019-02-25T00:09:50.647Z,1032.45
2019-02-25T00:10:50.670Z,1032.46
2019-02-25T00:11:50.564Z,1032.46
2019-02-25T00:12:50.542Z,1032.45
2019-02-25T00:13:50.579Z,1032.41
2019-02-25T00:14:50.522Z,1032.44
2019-02-25T00:15:50.512Z,1032.43
2019-02-25T00:16:50.496Z,1032.42
2019-02-25T00:17:50.531Z,1032.46
2019-02-25T00:18:50.475Z,1032.42
2019-02-25T00:19:50.490Z,1032.37
2019-02-25T00:20:50.459Z,1032.41
2019-02-25T00:21:50.443Z,1032.43
2019-02-25T00:22:50.450Z,1032.38
2019-02-25T00:23:50.424Z,1032.35
2019-02-25T00:24:50.410Z,1032.38
2019-02-25T00:25:50.413Z,1032.33
2019-02-25T00:26:50.391Z,1032.37
2019-02-25T00:27:50.380Z,1032.35
2019-02-25T00:28:50.412Z,1032.35
2019-02-25T00:29:50.371Z,1032.36
2019-02-25T00:30:50.344Z,1032.35
2019-02-25T00:31:50.337Z,1032.32
2019-02-25T00:32:50.323Z,1032.36
2019-02-25T00:33:50.317Z,1032.33
2019-02-25T00:34:50.331Z,1032.31
2019-02-25T00:35:50.299Z,1032.31
2019-02-25T00:36:50.281Z,1032.33
2019-02-25T00:37:50.271Z,1032.28
2019-02-25T00:38:50.262Z,1032.28
2019-02-25T00:39:50.243Z,1032.30
2019-02-25T00:40:50.268Z,1032.27
2019-02-25T00:41:50.229Z,1032.24
2019-02-25T00:42:50.227Z,1032.22
2019-02-25T00:43:50.211Z,1032.25
2019-02-25T00:44:57.840Z,1032.22
2019-02-25T00:45:50.229Z,1032.21
2019-02-25T00:46:59.071Z,1032.17
2019-02-25T00:47:50.247Z,1032.18
2019-02-25T00:48:50.197Z,1032.24
2019-02-25T00:49:50.207Z,1032.20
2019-02-25T00:50:50.165Z,1032.26
2019-02-25T00:51:50.235Z,1032.22
2019-02-25T00:52:50.117Z,1032.19
2019-02-25T00:53:50.109Z,1032.21
2019-02-25T00:54:58.693Z,1032.22
2019-02-25T00:55:50.070Z,1032.17
2019-02-25T00:56:50.058Z,1032.19
2019-02-25T00:57:50.055Z,1032.19
2019-02-25T00:58:50.038Z,1032.16
2019-02-25T00:59:50.045Z,1032.23
2019-02-25T01:00:50.035Z,1032.21
2019-02-25T01:01:50.008Z,1032.26
2019-02-25T01:02:49.994Z,1032.22
2019-02-25T01:03:49.982Z,1032.22
2019-02-25T01:04:49.972Z,1032.18
2019-02-25T01:05:49.966Z,1032.21
2019-02-25T01:06:49.976Z,1032.17
2019-02-25T01:07:49.938Z,1032.21
2019-02-25T01:08:49.947Z,1032.22
2019-02-25T01:09:49.919Z,1032.18
2019-02-25T01:10:49.905Z,1032.18
2019-02-25T01:11:49.896Z,1032.18
2019-02-25T01:12:49.908Z,1032.13
2019-02-25T01:13:49.876Z,1032.16
2019-02-25T01:14:49.861Z,1032.16
2019-02-25T01:15:49.851Z,1032.20
2019-02-25T01:16:49.842Z,1032.23
2019-02-25T01:17:49.846Z,1032.22
2019-02-25T01:18:49.831Z,1032.20
2019-02-25T01:19:49.805Z,1032.23
2019-02-25T01:20:49.795Z,1032.21
2019-02-25T01:21:49.786Z,1032.23
2019-02-25T01:22:49.773Z,1032.25
2019-02-25T01:23:49.781Z,1032.21
2019-02-25T01:24:49.763Z,1032.22
2019-02-25T01:25:49.753Z,1032.22
2019-02-25T01:26:49.742Z,1032.20
2019-02-25T01:27:49.736Z,1032.19
2019-02-25T01:28:49.718Z,1032.18
2019-02-25T01:29:49.723Z,1032.16
2019-02-25T01:30:49.686Z,1032.15
2019-02-25T01:31:49.686Z,1032.13
2019-02-25T01:32:49.667Z,1032.15
2019-02-25T01:33:49.654Z,1032.15
2019-02-25T01:34:49.655Z,1032.11
2019-02-25T01:35:49.643Z,1032.04
2019-02-25T01:36:49.624Z,1032.08
2019-02-25T01:37:49.608Z,1032.07
2019-02-25T01:38:49.602Z,1032.13
2019-02-25T01:39:49.598Z,1032.11
2019-02-25T01:40:49.602Z,1032.11
2019-02-25T01:41:49.566Z,1032.10
2019-02-25T01:42:49.567Z,1032.09
2019-02-25T01:43:49.544Z,1032.07
2019-02-25T01:44:49.537Z,1032.05
2019-02-25T01:45:49.526Z,1032.10
2019-02-25T01:46:49.520Z,1032.11
2019-02-25T01:47:49.524Z,1032.06
2019-02-25T01:48:49.490Z,1032.09
2019-02-25T01:49:49.479Z,1032.10
2019-02-25T01:50:49.469Z,1032.07
2019-02-25T01:51:49.456Z,1032.11
2019-02-25T01:52:49.460Z,1032.11
2019-02-25T01:53:49.445Z,1032.12
2019-02-25T01:54:49.423Z,1032.11
2019-02-25T01:55:49.411Z,1032.11
2019-02-25T01:56:49.405Z,1032.13
2019-02-25T01:57:49.391Z,1032.14
2019-02-25T01:58:49.393Z,1032.11
2019-02-25T01:59:49.376Z,1032.08
2019-02-25T02:00:49.356Z,1032.03
2019-02-25T02:01:49.346Z,1032.05
2019-02-25T02:02:49.337Z,1032.02
2019-02-25T02:03:49.324Z,1032.05
2019-02-25T02:04:49.329Z,1031.97
2019-02-25T02:05:49.324Z,1032.03
2019-02-25T02:06:49.296Z,1032.02
2019-02-25T02:07:49.333Z,1032.03
2019-02-25T02:08:49.270Z,1032.05
2019-02-25T02:09:49.272Z,1032.03
2019-02-25T02:10:49.263Z,1032.00
2019-02-25T02:11:49.239Z,1032.02
2019-02-25T02:12:49.230Z,1032.03
2019-02-25T02:13:49.217Z,1032.00
2019-02-25T02:14:49.206Z,1032.01
2019-02-25T02:15:49.192Z,1031.95
2019-02-25T02:16:49.195Z,1031.98
2019-02-25T02:17:49.176Z,1031.99
2019-02-25T02:18:49.168Z,1032.02
2019-02-25T02:19:49.158Z,1031.93
2019-02-25T02:20:49.140Z,1031.90
2019-02-25T02:21:49.144Z,1031.87
2019-02-25T02:22:49.116Z,1031.84
2019-02-25T02:23:49.105Z,1031.84
2019-02-25T02:24:49.100Z,1031.85
2019-02-25T02:25:49.111Z,1031.84
2019-02-25T02:26:49.080Z,1031.82
2019-02-25T02:27:49.086Z,1031.83
2019-02-25T02:28:49.061Z,1031.87
2019-02-25T02:29:49.041Z,1031.87
2019-02-25T02:30:49.033Z,1031.87
2019-02-25T02:31:49.020Z,1031.92
2019-02-25T02:32:49.013Z,1031.91
2019-02-25T02:33:49.013Z,1031.98
2019-02-25T02:34:48.999Z,1031.96
2019-02-25T02:35:48.975Z,1031.97
2019-02-25T02:36:48.969Z,1031.97
2019-02-25T02:37:48.955Z,1032.04
2019-02-25T02:38:48.941Z,1032.03
2019-02-25T02:39:48.945Z,1032.03
2019-02-25T02:40:48.927Z,1032.05
2019-02-25T02:41:48.908Z,1031.99
2019-02-25T02:42:48.899Z,1032.00
2019-02-25T02:43:48.910Z,1031.97
2019-02-25T02:44:48.881Z,1031.99
2019-02-25T02:45:48.867Z,1031.96
2019-02-25T02:46:48.864Z,1031.94
2019-02-25T02:47:48.862Z,1031.94
2019-02-25T02:48:48.845Z,1031.94
2019-02-25T02:49:48.822Z,1031.90
2019-02-25T02:50:48.811Z,1031.87
2019-02-25T02:51:48.799Z,1031.85
2019-02-25T02:52:48.791Z,1031.89
2019-02-25T02:53:48.798Z,1031.87
2019-02-25T02:54:48.768Z,1031.88
2019-02-25T02:55:48.759Z,1031.92
2019-02-25T02:56:48.748Z,1031.92
2019-02-25T02:57:48.736Z,1031.90
2019-02-25T02:58:48.736Z,1031.98
2019-02-25T02:59:48.728Z,1032.00
2019-02-25T03:00:48.726Z,1032.00
2019-02-25T03:01:48.691Z,1032.01
2019-02-25T03:02:48.693Z,1032.00
2019-02-25T03:03:48.670Z,1031.96
2019-02-25T03:04:48.659Z,1031.96
2019-02-25T03:05:48.646Z,1031.88
2019-02-25T03:06:48.652Z,1031.89
2019-02-25T03:07:48.627Z,1031.90
2019-02-25T03:08:48.628Z,1031.89
2019-02-25T03:09:48.606Z,1031.85
2019-02-25T03:10:48.594Z,1031.83
2019-02-25T03:11:48.586Z,1031.82
2019-02-25T03:12:48.576Z,1031.80
2019-02-25T03:13:48.568Z,1031.81
2019-02-25T03:14:48.547Z,1031.82
2019-02-25T03:15:48.540Z,1031.78
2019-02-25T03:16:48.531Z,1031.82
2019-02-25T03:17:48.520Z,1031.82
2019-02-25T03:18:48.521Z,1031.86
2019-02-25T03:19:48.500Z,1031.90
2019-02-25T03:20:48.482Z,1031.90
2019-02-25T03:21:48.472Z,1031.86
2019-02-25T03:22:48.461Z,1031.84
2019-02-25T03:23:48.459Z,1031.80
2019-02-25T03:24:48.441Z,1031.76
2019-02-25T03:25:48.464Z,1031.72
2019-02-25T03:26:48.420Z,1031.72
2019-02-25T03:27:48.406Z,1031.74
2019-02-25T03:28:48.394Z,1031.67
2019-02-25T03:29:48.384Z,1031.67
2019-02-25T03:30:48.387Z,1031.71
2019-02-25T03:31:48.395Z,1031.66
2019-02-25T03:32:48.365Z,1031.67
2019-02-25T03:33:48.340Z,1031.66
2019-02-25T03:34:48.332Z,1031.68
2019-02-25T03:35:48.318Z,1031.65
2019-02-25T03:36:48.323Z,1031.68
2019-02-25T03:37:48.314Z,1031.73
2019-02-25T03:38:48.308Z,1031.74
2019-02-25T03:39:48.274Z,1031.74
2019-02-25T03:40:48.266Z,1031.79
2019-02-25T03:41:48.252Z,1031.81
2019-02-25T03:42:48.260Z,1031.76
2019-02-25T03:43:48.232Z,1031.78
2019-02-25T03:44:48.230Z,1031.78
2019-02-25T03:45:48.221Z,1031.75
2019-02-25T03:46:48.215Z,1031.77
2019-02-25T03:47:48.201Z,1031.82
2019-02-25T03:48:48.178Z,1031.83
2019-02-25T03:49:48.165Z,1031.88
2019-02-25T03:50:48.200Z,1031.87
2019-02-25T03:51:48.144Z,1031.86
2019-02-25T03:52:48.140Z,1031.84
2019-02-25T03:53:48.165Z,1031.79
2019-02-25T03:54:48.111Z,1031.79
2019-02-25T03:55:48.104Z,1031.84
2019-02-25T03:56:48.091Z,1031.80
2019-02-25T03:57:48.081Z,1031.82
2019-02-25T03:58:48.084Z,1031.85
2019-02-25T03:59:48.074Z,1031.84
2019-02-25T04:00:48.047Z,1031.89
2019-02-25T04:01:48.035Z,1031.88
2019-02-25T04:02:48.023Z,1031.88
2019-02-25T04:03:48.015Z,1031.93
2019-02-25T04:04:48.017Z,1031.90
2019-02-25T04:05:47.993Z,1031.85
2019-02-25T04:06:47.984Z,1031.86
2019-02-25T04:07:47.972Z,1031.92
2019-02-25T04:08:47.962Z,1031.93
2019-02-25T04:09:47.970Z,1031.95
2019-02-25T04:10:47.939Z,1031.95
2019-02-25T04:11:47.928Z,1031.95
2019-02-25T04:12:47.931Z,1031.97
2019-02-25T04:13:47.902Z,1031.96
2019-02-25T04:14:47.900Z,1031.93
2019-02-25T04:15:47.908Z,1031.93
2019-02-25T04:16:47.872Z,1031.93
2019-02-25T04:17:47.861Z,1031.90
2019-02-25T04:18:47.848Z,1031.89
2019-02-25T04:19:47.841Z,1031.93
2019-02-25T04:20:47.829Z,1031.95
2019-02-25T04:21:47.861Z,1031.92
2019-02-25T04:22:47.803Z,1031.91
2019-02-25T04:23:47.793Z,1031.96
2019-02-25T04:24:47.782Z,1031.95
2019-02-25T04:25:47.770Z,1031.97
2019-02-25T04:26:47.784Z,1031.98
2019-02-25T04:27:47.766Z,1031.98
2019-02-25T04:28:47.741Z,1032.01
2019-02-25T04:29:47.733Z,1032.00
2019-02-25T04:30:47.719Z,1032.07
2019-02-25T04:31:47.706Z,1032.04
2019-02-25T04:32:47.720Z,1032.05
2019-02-25T04:33:47.696Z,1032.07
2019-02-25T04:34:47.673Z,1032.03
2019-02-25T04:35:47.662Z,1032.09
2019-02-25T04:36:47.663Z,1032.06
2019-02-25T04:37:47.639Z,1032.09
2019-02-25T04:38:47.643Z,1032.01
2019-02-25T04:39:47.636Z,1032.02
2019-02-25T04:40:47.613Z,1031.98
2019-02-25T04:41:47.615Z,1032.03
2019-02-25T04:42:47.599Z,1031.96
2019-02-25T04:43:47.580Z,1031.96
2019-02-25T04:44:47.565Z,1031.93
2019-02-25T04:45:47.581Z,1031.90
2019-02-25T04:46:47.557Z,1031.88
2019-02-25T04:47:47.531Z,1031.88
2019-02-25T04:48:47.519Z,1031.86
2019-02-25T04:49:47.510Z,1031.88
2019-02-25T04:50:47.523Z,1031.89
2019-02-25T04:51:47.497Z,1031.87
2019-02-25T04:52:47.476Z,1031.84
2019-02-25T04:53:47.467Z,1031.83
2019-02-25T04:54:47.467Z,1031.77
2019-02-25T04:55:47.447Z,1031.79
2019-02-25T04:56:47.451Z,1031.83
2019-02-25T04:57:47.433Z,1031.84
2019-02-25T04:58:47.414Z,1031.85
2019-02-25T04:59:47.401Z,1031.85
2019-02-25T05:00:47.391Z,1031.81
2019-02-25T05:01:47.384Z,1031.86
2019-02-25T05:02:47.378Z,1031.87
2019-02-25T05:03:47.362Z,1031.84
2019-02-25T05:04:47.361Z,1031.87
2019-02-25T05:05:47.334Z,1031.88
2019-02-25T05:06:47.335Z,1031.85
2019-02-25T05:07:47.333Z,1031.87
2019-02-25T05:08:47.305Z,1031.88
2019-02-25T05:09:47.297Z,1031.84
2019-02-25T05:10:47.294Z,1031.86
2019-02-25T05:11:47.271Z,1031.88
2019-02-25T05:12:47.281Z,1031.90
2019-02-25T05:13:47.245Z,1031.93
2019-02-25T05:14:47.249Z,1031.94
2019-02-25T05:15:47.225Z,1031.99
2019-02-25T05:16:47.228Z,1032.01
2019-02-25T05:17:47.216Z,1032.03
2019-02-25T05:18:47.190Z,1032.05
2019-02-25T05:19:47.196Z,1032.01
2019-02-25T05:20:47.250Z,1032.02
2019-02-25T05:21:47.161Z,1032.01
2019-02-25T05:22:47.158Z,1031.98
2019-02-25T05:23:47.151Z,1031.96
2019-02-25T05:24:47.145Z,1032.01
2019-02-25T05:25:47.123Z,1032.01
2019-02-25T05:26:47.104Z,1031.98
2019-02-25T05:27:47.092Z,1032.02
2019-02-25T05:28:47.093Z,1032.04
2019-02-25T05:29:47.092Z,1032.01
2019-02-25T05:30:47.129Z,1032.03
2019-02-25T05:31:47.063Z,1032.06
2019-02-25T05:32:47.041Z,1032.06
2019-02-25T05:33:47.027Z,1032.09
2019-02-25T05:34:47.030Z,1032.07
2019-02-25T05:35:47.023Z,1032.14
2019-02-25T05:36:46.994Z,1032.11
2019-02-25T05:37:46.985Z,1032.19
2019-02-25T05:38:46.973Z,1032.17
2019-02-25T05:39:46.960Z,1032.18
2019-02-25T05:40:46.964Z,1032.21
2019-02-25T05:41:46.948Z,1032.17
2019-02-25T05:42:46.941Z,1032.14
2019-02-25T05:43:46.935Z,1032.18
2019-02-25T05:44:46.906Z,1032.16
2019-02-25T05:45:46.895Z,1032.11
2019-02-25T05:46:46.884Z,1032.09
2019-02-25T05:47:46.877Z,1032.17
2019-02-25T05:48:46.875Z,1032.13
2019-02-25T05:49:46.873Z,1032.12
2019-02-25T05:50:46.856Z,1032.12
2019-02-25T05:51:46.828Z,1032.11
2019-02-25T05:52:46.818Z,1032.07
2019-02-25T05:53:46.806Z,1032.08
2019-02-25T05:54:46.830Z,1032.12
2019-02-25T05:55:46.800Z,1032.12
2019-02-25T05:56:46.776Z,1032.09
2019-02-25T05:57:46.763Z,1032.09
2019-02-25T05:58:46.753Z,1032.09
2019-02-25T05:59:46.744Z,1032.09
2019-02-25T06:00:46.763Z,1032.10
2019-02-25T06:01:46.721Z,1032.09
2019-02-25T06:02:46.710Z,1032.10
2019-02-25T06:03:46.699Z,1032.06
2019-02-25T06:04:46.700Z,1031.99
2019-02-25T06:05:46.677Z,1032.01
2019-02-25T06:06:46.702Z,1032.02
2019-02-25T06:07:46.655Z,1032.03
2019-02-25T06:08:46.646Z,1032.03
2019-02-25T06:09:46.631Z,1032.06
2019-02-25T06:10:46.621Z,1032.11
2019-02-25T06:11:46.609Z,1032.03
2019-02-25T06:12:46.631Z,1032.10
2019-02-25T06:13:46.588Z,1032.10
2019-02-25T06:14:46.576Z,1032.11
2019-02-25T06:15:46.567Z,1032.11
2019-02-25T06:16:46.561Z,1032.14
2019-02-25T06:17:46.553Z,1032.14
2019-02-25T06:18:46.537Z,1032.10
2019-02-25T06:19:46.520Z,1032.13
2019-02-25T06:20:46.526Z,1032.11
2019-02-25T06:21:46.505Z,1032.08
2019-02-25T06:22:46.505Z,1032.13
2019-02-25T06:23:46.476Z,1032.15
2019-02-25T06:24:46.485Z,1032.15
2019-02-25T06:25:46.455Z,1032.19
2019-02-25T06:26:46.460Z,1032.23
2019-02-25T06:27:46.448Z,1032.29
2019-02-25T06:28:46.425Z,1032.27
2019-02-25T06:29:46.410Z,1032.26
2019-02-25T06:30:46.425Z,1032.29
2019-02-25T06:31:46.388Z,1032.31
2019-02-25T06:32:46.390Z,1032.29
2019-02-25T06:33:47.541Z,1032.34
2019-02-25T06:34:46.360Z,1032.35
2019-02-25T06:35:46.358Z,1032.34
2019-02-25T06:36:46.342Z,1032.38
2019-02-25T06:37:46.356Z,1032.38
2019-02-25T06:38:46.315Z,1032.38
2019-02-25T06:39:46.303Z,1032.36
2019-02-25T06:40:46.291Z,1032.38
2019-02-25T06:41:46.294Z,1032.40
2019-02-25T06:42:46.284Z,1032.38
2019-02-25T06:43:46.260Z,1032.41
2019-02-25T06:44:46.249Z,1032.39
2019-02-25T06:45:46.238Z,1032.36
2019-02-25T06:46:46.227Z,1032.38
2019-02-25T06:47:46.224Z,1032.34
2019-02-25T06:48:46.217Z,1032.34
2019-02-25T06:49:46.193Z,1032.32
2019-02-25T06:50:46.193Z,1032.36
2019-02-25T06:51:46.171Z,1032.35
2019-02-25T06:52:46.170Z,1032.34
2019-02-25T06:53:46.146Z,1032.35
2019-02-25T06:54:46.149Z,1032.34
2019-02-25T06:55:46.332Z,1032.34
2019-02-25T06:56:46.229Z,1032.35
2019-02-25T06:57:46.238Z,1032.36
2019-02-25T06:58:46.109Z,1032.33
2019-02-25T06:59:46.110Z,1032.30
2019-02-25T07:00:46.101Z,1032.34
2019-02-25T07:01:46.084Z,1032.32
2019-02-25T07:02:46.095Z,1032.35
2019-02-25T07:03:46.108Z,1032.34
2019-02-25T07:04:46.062Z,1032.37
2019-02-25T07:05:46.020Z,1032.41
2019-02-25T07:06:46.019Z,1032.37
2019-02-25T07:07:46.028Z,1032.40
2019-02-25T07:08:46.074Z,1032.42
2019-02-25T07:09:46.034Z,1032.39
2019-02-25T07:10:46.192Z,1032.40
2019-02-25T07:11:45.951Z,1032.41
2019-02-25T07:12:45.965Z,1032.41
2019-02-25T07:13:45.928Z,1032.39
2019-02-25T07:14:47.435Z,1032.40
2019-02-25T07:15:45.970Z,1032.40
2019-02-25T07:16:45.897Z,1032.35
2019-02-25T07:17:45.888Z,1032.36
2019-02-25T07:18:45.875Z,1032.35
2019-02-25T07:19:45.863Z,1032.36
2019-02-25T07:20:45.882Z,1032.31
2019-02-25T07:21:45.854Z,1032.38
2019-02-25T07:22:45.850Z,1032.41
2019-02-25T07:23:45.819Z,1032.40
2019-02-25T07:24:52.614Z,1032.43
2019-02-25T07:25:46.797Z,1032.49
2019-02-25T07:26:45.818Z,1032.53
2019-02-25T07:27:45.775Z,1032.56
2019-02-25T07:28:45.761Z,1032.55
2019-02-25T07:29:45.751Z,1032.58
2019-02-25T07:30:45.743Z,1032.55
2019-02-25T07:31:45.746Z,1032.58
2019-02-25T07:32:45.749Z,1032.60
2019-02-25T07:33:45.705Z,1032.57
2019-02-25T07:34:45.698Z,1032.57
2019-02-25T07:35:45.691Z,1032.66
2019-02-25T07:36:45.673Z,1032.65
2019-02-25T07:37:45.681Z,1032.63
2019-02-25T07:38:45.672Z,1032.64
2019-02-25T07:39:45.644Z,1032.68
2019-02-25T07:40:45.630Z,1032.65
2019-02-25T07:41:45.621Z,1032.72
2019-02-25T07:42:45.624Z,1032.67
2019-02-25T07:43:45.599Z,1032.75
2019-02-25T07:44:45.611Z,1032.75
2019-02-25T07:45:45.573Z,1032.78
2019-02-25T07:46:45.567Z,1032.77
2019-02-25T07:47:45.552Z,1032.81
2019-02-25T07:48:45.552Z,1032.81
2019-02-25T07:49:45.529Z,1032.80
2019-02-25T07:50:47.380Z,1032.75
2019-02-25T07:51:45.509Z,1032.78
2019-02-25T07:52:45.498Z,1032.78
2019-02-25T07:53:45.503Z,1032.78
2019-02-25T07:54:45.476Z,1032.78
2019-02-25T07:55:45.463Z,1032.83
2019-02-25T07:56:45.484Z,1032.87
2019-02-25T07:57:45.450Z,1032.90
2019-02-25T07:58:45.433Z,1032.90
2019-02-25T07:59:45.431Z,1032.90
2019-02-25T08:00:45.412Z,1032.89
2019-02-25T08:01:45.397Z,1032.86
2019-02-25T08:02:45.403Z,1032.88
2019-02-25T08:03:45.378Z,1032.87
2019-02-25T08:04:45.378Z,1032.87
2019-02-25T08:05:45.373Z,1032.85
2019-02-25T08:06:45.348Z,1032.92
2019-02-25T08:07:45.334Z,1032.93
2019-02-25T08:08:45.351Z,1032.90
2019-02-25T08:09:45.313Z,1032.93
2019-02-25T08:10:45.314Z,1032.91
2019-02-25T08:11:45.288Z,1032.96
2019-02-25T08:12:45.279Z,1033.03
2019-02-25T08:13:45.270Z,1032.91
2019-02-25T08:14:45.255Z,1032.91
2019-02-25T08:15:45.294Z,1032.97
2019-02-25T08:16:45.233Z,1032.98
2019-02-25T08:17:45.225Z,1033.04
2019-02-25T08:18:45.215Z,1033.09
2019-02-25T08:19:45.205Z,1033.09
2019-02-25T08:20:45.194Z,1033.20
2019-02-25T08:21:45.220Z,1033.21
2019-02-25T08:22:45.170Z,1033.19
2019-02-25T08:23:45.157Z,1033.19
2019-02-25T08:24:45.161Z,1033.24
2019-02-25T08:25:45.141Z,1033.25
2019-02-25T08:26:45.124Z,1033.18
2019-02-25T08:27:45.156Z,1033.03
2019-02-25T08:28:45.101Z,1032.90
2019-02-25T08:29:45.094Z,1032.80
2019-02-25T08:30:45.084Z,1032.87
2019-02-25T08:31:45.092Z,1032.95
2019-02-25T08:32:45.059Z,1032.97
2019-02-25T08:33:45.069Z,1032.99
2019-02-25T08:34:45.040Z,1032.99
2019-02-25T08:35:45.024Z,1033.00
2019-02-25T08:36:45.029Z,1033.03
2019-02-25T08:37:45.021Z,1033.00
2019-02-25T08:38:44.990Z,1033.08
2019-02-25T08:39:44.998Z,1033.11
2019-02-25T08:40:44.972Z,1033.14
2019-02-25T08:41:44.958Z,1033.16
2019-02-25T08:42:44.958Z,1033.16
2019-02-25T08:43:44.935Z,1033.21
2019-02-25T08:44:44.923Z,1033.18
2019-02-25T08:45:44.960Z,1033.20
2019-02-25T08:46:44.921Z,1033.19
2019-02-25T08:47:44.892Z,1033.14
2019-02-25T08:48:44.910Z,1033.15
2019-02-25T08:49:44.868Z,1033.09
2019-02-25T08:50:44.860Z,1033.15
2019-02-25T08:51:44.876Z,1033.16
2019-02-25T08:52:44.847Z,1033.17
2019-02-25T08:53:44.826Z,1033.15
2019-02-25T08:54:44.828Z,1033.16
2019-02-25T08:55:44.802Z,1033.18
2019-02-25T08:56:44.791Z,1033.21
2019-02-25T08:57:44.823Z,1033.23
2019-02-25T08:58:44.769Z,1033.23
2019-02-25T08:59:44.760Z,1033.29
2019-02-25T09:00:44.745Z,1033.27
2019-02-25T09:01:44.736Z,1033.21
2019-02-25T09:02:44.726Z,1033.26
2019-02-25T09:03:44.787Z,1033.23
2019-02-25T09:04:44.702Z,1033.28
2019-02-25T09:05:44.693Z,1033.25
2019-02-25T09:06:44.681Z,1033.27
2019-02-25T09:07:44.671Z,1033.32
2019-02-25T09:08:44.658Z,1033.31
2019-02-25T09:09:44.689Z,1033.31
2019-02-25T09:10:44.639Z,1033.32
2019-02-25T09:11:44.627Z,1033.31
2019-02-25T09:12:44.616Z,1033.31
2019-02-25T09:13:44.608Z,1033.27
2019-02-25T09:14:44.652Z,1033.31
2019-02-25T09:15:44.603Z,1033.31
2019-02-25T09:16:44.574Z,1033.34
2019-02-25T09:17:44.562Z,1033.34
2019-02-25T09:18:44.550Z,1033.33
2019-02-25T09:19:44.540Z,1033.33
2019-02-25T09:20:44.542Z,1033.30
2019-02-25T09:21:44.546Z,1033.28
2019-02-25T09:22:44.518Z,1033.31
2019-02-25T09:23:44.498Z,1033.35
2019-02-25T09:24:44.488Z,1033.34
2019-02-25T09:25:44.484Z,1033.31
2019-02-25T09:26:44.463Z,1033.33
2019-02-25T09:27:44.492Z,1033.32
2019-02-25T09:28:44.438Z,1033.29
2019-02-25T09:29:45.001Z,1033.31
2019-02-25T09:30:44.428Z,1033.29
2019-02-25T09:31:44.408Z,1033.36
2019-02-25T09:32:44.398Z,1033.35
2019-02-25T09:33:44.405Z,1033.35
2019-02-25T09:34:44.389Z,1033.37
2019-02-25T09:35:44.373Z,1033.33
2019-02-25T09:36:44.352Z,1033.41
2019-02-25T09:37:44.341Z,1033.38
2019-02-25T09:38:44.334Z,1033.36
2019-02-25T09:39:44.345Z,1033.34
2019-02-25T09:40:44.326Z,1033.37
2019-02-25T09:41:44.298Z,1033.36
2019-02-25T09:42:44.287Z,1033.37
2019-02-25T09:43:44.278Z,1033.39
2019-02-25T09:44:44.294Z,1033.35
2019-02-25T09:45:44.254Z,1033.41
2019-02-25T09:46:44.295Z,1033.38
2019-02-25T09:47:44.232Z,1033.40
2019-02-25T09:48:44.222Z,1033.36
2019-02-25T09:49:44.210Z,1033.40
2019-02-25T09:50:44.205Z,1033.38
2019-02-25T09:51:44.199Z,1033.37
2019-02-25T09:52:44.219Z,1033.33
2019-02-25T09:53:44.165Z,1033.33
2019-02-25T09:54:44.155Z,1033.36
2019-02-25T09:55:44.147Z,1033.32
2019-02-25T09:56:44.133Z,1033.31
2019-02-25T09:57:44.131Z,1033.29
2019-02-25T09:58:44.141Z,1033.30
2019-02-25T09:59:44.113Z,1033.23
2019-02-25T10:00:46.046Z,1033.27
2019-02-25T10:01:44.080Z,1033.23
2019-02-25T10:02:44.104Z,1033.21
2019-02-25T10:03:44.057Z,1033.20
2019-02-25T10:04:44.070Z,1033.24
2019-02-25T10:05:44.048Z,1033.22
2019-02-25T10:06:44.021Z,1033.20
2019-02-25T10:07:44.009Z,1033.23
2019-02-25T10:08:44.012Z,1033.20
2019-02-25T10:09:43.986Z,1033.23
2019-02-25T10:10:44.022Z,1033.22
2019-02-25T10:11:43.964Z,1033.18
2019-02-25T10:12:43.956Z,1033.21
2019-02-25T10:13:43.946Z,1033.19
2019-02-25T10:14:43.932Z,1033.14
2019-02-25T10:15:43.935Z,1033.15
2019-02-25T10:16:43.929Z,1033.11
2019-02-25T10:17:43.901Z,1033.13
2019-02-25T10:18:43.892Z,1033.12
2019-02-25T10:19:43.894Z,1033.14
2019-02-25T10:20:43.864Z,1033.19
2019-02-25T10:21:43.854Z,1033.22
2019-02-25T10:22:43.890Z,1033.18
2019-02-25T10:23:43.882Z,1033.23
2019-02-25T10:24:43.820Z,1033.26
2019-02-25T10:25:43.824Z,1033.26
2019-02-25T10:26:43.807Z,1033.27
2019-02-25T10:27:43.789Z,1033.25
2019-02-25T10:28:43.808Z,1033.17
2019-02-25T10:29:43.766Z,1033.16
2019-02-25T10:30:52.368Z,1033.11
2019-02-25T10:31:44.757Z,1033.11
2019-02-25T10:32:43.733Z,1033.11
2019-02-25T10:33:43.720Z,1033.04
2019-02-25T10:34:43.746Z,1033.04
2019-02-25T10:35:43.697Z,1033.02
2019-02-25T10:36:44.522Z,1033.05
2019-02-25T10:37:43.885Z,1033.04
2019-02-25T10:38:43.665Z,1033.03
2019-02-25T10:39:45.317Z,1033.00
2019-02-25T10:40:45.334Z,1032.98
2019-02-25T10:41:43.632Z,1033.03
2019-02-25T10:42:43.632Z,1032.99
2019-02-25T10:43:43.608Z,1032.97
2019-02-25T10:44:43.602Z,1032.99
2019-02-25T10:45:45.369Z,1032.98
2019-02-25T10:46:44.881Z,1032.98
2019-02-25T10:47:44.255Z,1033.00
2019-02-25T10:48:43.563Z,1032.94
2019-02-25T10:49:43.547Z,1032.98
2019-02-25T10:50:43.530Z,1032.97
2019-02-25T10:51:45.547Z,1032.98
2019-02-25T10:52:44.925Z,1033.03
2019-02-25T10:53:45.180Z,1032.99
2019-02-25T10:54:43.487Z,1033.05
2019-02-25T10:55:45.038Z,1033.01
2019-02-25T10:56:43.482Z,1033.00
2019-02-25T10:57:43.461Z,1033.03
2019-02-25T10:58:43.471Z,1033.02
2019-02-25T10:59:43.432Z,1032.96
2019-02-25T11:00:43.874Z,1032.95
2019-02-25T11:01:45.349Z,1032.96
2019-02-25T11:02:44.468Z,1032.93
2019-02-25T11:03:45.145Z,1032.91
2019-02-25T11:04:43.419Z,1032.86
2019-02-25T11:05:43.366Z,1032.88
2019-02-25T11:06:43.357Z,1032.81
2019-02-25T11:07:43.357Z,1032.80
2019-02-25T11:08:44.111Z,1032.78
2019-02-25T11:09:44.422Z,1032.78
2019-02-25T11:10:44.127Z,1032.74
2019-02-25T11:11:43.306Z,1032.73
2019-02-25T11:12:43.289Z,1032.65
2019-02-25T11:13:43.292Z,1032.66
2019-02-25T11:14:43.462Z,1032.68
2019-02-25T11:15:44.567Z,1032.72
2019-02-25T11:16:43.993Z,1032.67
2019-02-25T11:17:43.235Z,1032.71
2019-02-25T11:18:43.224Z,1032.71
2019-02-25T11:19:43.228Z,1032.68
2019-02-25T11:20:43.205Z,1032.67
2019-02-25T11:21:44.251Z,1032.68
2019-02-25T11:22:44.075Z,1032.64
2019-02-25T11:23:45.063Z,1032.67
2019-02-25T11:24:43.171Z,1032.65
2019-02-25T11:25:43.147Z,1032.70
2019-02-25T11:26:43.159Z,1032.68
2019-02-25T11:27:43.122Z,1032.61
2019-02-25T11:28:43.782Z,1032.64
2019-02-25T11:29:44.053Z,1032.58
2019-02-25T11:30:44.858Z,1032.56
2019-02-25T11:31:43.079Z,1032.54
2019-02-25T11:32:43.068Z,1032.50
2019-02-25T11:33:43.076Z,1032.45
2019-02-25T11:34:43.072Z,1032.45
2019-02-25T11:35:43.354Z,1032.45
2019-02-25T11:36:43.035Z,1032.46
2019-02-25T11:37:43.042Z,1032.40
2019-02-25T11:38:43.004Z,1032.36
2019-02-25T11:39:42.989Z,1032.33
2019-02-25T11:40:42.997Z,1032.33
2019-02-25T11:41:42.983Z,1032.30
2019-02-25T11:42:42.961Z,1032.30
2019-02-25T11:43:44.064Z,1032.28
2019-02-25T11:44:42.934Z,1032.28
2019-02-25T11:45:42.944Z,1032.22
2019-02-25T11:46:42.931Z,1032.26
2019-02-25T11:47:42.916Z,1032.24
2019-02-25T11:48:42.889Z,1032.24
2019-02-25T11:49:42.878Z,1032.24
2019-02-25T11:50:44.754Z,1032.21
2019-02-25T11:51:42.905Z,1032.21
2019-02-25T11:52:42.845Z,1032.13
2019-02-25T11:53:42.836Z,1032.11
2019-02-25T11:54:42.825Z,1032.08
2019-02-25T11:55:42.812Z,1032.06
2019-02-25T11:56:42.801Z,1032.06
2019-02-25T11:57:42.852Z,1032.03
2019-02-25T11:58:42.777Z,1032.02
2019-02-25T11:59:42.767Z,1032.02
2019-02-25T12:00:42.758Z,1031.94
2019-02-25T12:01:42.747Z,1031.95
2019-02-25T12:02:42.733Z,1031.92
2019-02-25T12:03:42.773Z,1031.92
2019-02-25T12:04:42.711Z,1031.93
2019-02-25T12:05:42.699Z,1031.91
2019-02-25T12:06:42.693Z,1031.86
2019-02-25T12:07:42.677Z,1031.80